sensor_id;sensor_type;location;lat;lon;timestamp;noise_LAeq;noise_LA_min;noise_LA_max;noise_LA01;noise_LA95
72160;Laerm;60045;51.792;10.938;2024-01-16T00:01:24;38.26;32.57;51.00;;
72160;Laerm;60045;51.792;10.938;2024-01-16T00:03:50;34.19;32.09;37.93;;
72160;Laerm;60045;51.792;10.938;2024-01-16T00:06:16;39.75;32.15;56.34;;
72160;Laerm;60045;51.792;10.938;2024-01-16T00:08:41;40.07;33.30;45.22;;
72160;Laerm;60045;51.792;10.938;2024-01-16T00:11:07;41.15;35.70;46.44;;
72160;Laerm;60045;51.792;10.938;2024-01-16T00:13:33;38.41;33.98;42.40;;
72160;Laerm;60045;51.792;10.938;2024-01-16T00:15:59;37.98;31.46;53.83;;
72160;Laerm;60045;51.792;10.938;2024-01-16T00:18:24;35.30;31.77;42.44;;
72160;Laerm;60045;51.792;10.938;2024-01-16T00:20:50;38.15;31.08;57.45;;
72160;Laerm;60045;51.792;10.938;2024-01-16T00:23:16;33.96;31.91;36.79;;
72160;Laerm;60045;51.792;10.938;2024-01-16T00:25:41;61.75;33.23;78.75;;
72160;Laerm;60045;51.792;10.938;2024-01-16T00:28:07;39.44;32.63;51.31;;
72160;Laerm;60045;51.792;10.938;2024-01-16T00:30:33;33.95;31.70;39.01;;
72160;Laerm;60045;51.792;10.938;2024-01-16T00:32:58;35.78;32.83;43.52;;
72160;Laerm;60045;51.792;10.938;2024-01-16T00:35:24;34.34;31.43;40.68;;
72160;Laerm;60045;51.792;10.938;2024-01-16T00:37:50;35.04;31.66;38.70;;
72160;Laerm;60045;51.792;10.938;2024-01-16T00:40:16;34.85;30.80;53.16;;
72160;Laerm;60045;51.792;10.938;2024-01-16T00:42:41;36.95;30.50;52.60;;
72160;Laerm;60045;51.792;10.938;2024-01-16T00:45:07;40.30;30.13;63.02;;
72160;Laerm;60045;51.792;10.938;2024-01-16T00:47:33;31.28;29.44;33.71;;
72160;Laerm;60045;51.792;10.938;2024-01-16T00:49:58;31.26;29.09;35.81;;
72160;Laerm;60045;51.792;10.938;2024-01-16T00:52:26;30.26;28.88;34.03;;
72160;Laerm;60045;51.792;10.938;2024-01-16T00:54:52;30.89;29.48;35.00;;
72160;Laerm;60045;51.792;10.938;2024-01-16T00:57:17;37.82;29.01;50.79;;
72160;Laerm;60045;51.792;10.938;2024-01-16T00:59:45;65.14;31.51;81.32;;
72160;Laerm;60045;51.792;10.938;2024-01-16T01:02:10;36.59;32.04;48.24;;
72160;Laerm;60045;51.792;10.938;2024-01-16T01:04:37;34.30;30.86;38.98;;
72160;Laerm;60045;51.792;10.938;2024-01-16T01:07:02;33.86;30.82;47.33;;
72160;Laerm;60045;51.792;10.938;2024-01-16T01:09:28;35.38;31.82;41.08;;
72160;Laerm;60045;51.792;10.938;2024-01-16T01:11:54;35.83;33.37;38.36;;
72160;Laerm;60045;51.792;10.938;2024-01-16T01:14:20;35.88;32.35;43.23;;
72160;Laerm;60045;51.792;10.938;2024-01-16T01:16:46;37.29;33.52;43.49;;
72160;Laerm;60045;51.792;10.938;2024-01-16T01:19:11;38.10;33.71;41.67;;
72160;Laerm;60045;51.792;10.938;2024-01-16T01:21:37;38.38;32.91;47.55;;
72160;Laerm;60045;51.792;10.938;2024-01-16T01:24:03;38.09;33.92;45.73;;
72160;Laerm;60045;51.792;10.938;2024-01-16T01:26:29;54.64;31.55;72.86;;
72160;Laerm;60045;51.792;10.938;2024-01-16T01:28:54;58.96;31.76;75.42;;
72160;Laerm;60045;51.792;10.938;2024-01-16T01:31:20;37.43;32.15;50.18;;
72160;Laerm;60045;51.792;10.938;2024-01-16T01:33:46;40.15;33.24;55.67;;
72160;Laerm;60045;51.792;10.938;2024-01-16T01:36:12;36.62;32.66;44.70;;
72160;Laerm;60045;51.792;10.938;2024-01-16T01:38:38;38.63;31.88;52.79;;
72160;Laerm;60045;51.792;10.938;2024-01-16T01:41:04;37.63;31.67;43.61;;
72160;Laerm;60045;51.792;10.938;2024-01-16T01:43:30;36.96;31.51;46.78;;
72160;Laerm;60045;51.792;10.938;2024-01-16T01:48:40;43.99;31.55;63.95;;
72160;Laerm;60045;51.792;10.938;2024-01-16T01:51:06;36.30;31.77;46.54;;
72160;Laerm;60045;51.792;10.938;2024-01-16T01:53:33;34.36;31.04;42.64;;
72160;Laerm;60045;51.792;10.938;2024-01-16T01:55:59;34.46;31.95;39.23;;
72160;Laerm;60045;51.792;10.938;2024-01-16T01:58:25;38.46;32.16;44.08;;
72160;Laerm;60045;51.792;10.938;2024-01-16T02:00:50;34.97;31.50;39.84;;
72160;Laerm;60045;51.792;10.938;2024-01-16T02:03:16;50.60;31.00;67.58;;
72160;Laerm;60045;51.792;10.938;2024-01-16T02:05:42;66.76;34.04;83.47;;
72160;Laerm;60045;51.792;10.938;2024-01-16T02:08:08;39.34;33.73;47.12;;
72160;Laerm;60045;51.792;10.938;2024-01-16T02:10:35;65.03;34.46;81.15;;
72160;Laerm;60045;51.792;10.938;2024-01-16T02:13:02;36.25;32.09;41.58;;
72160;Laerm;60045;51.792;10.938;2024-01-16T02:15:28;36.55;30.56;52.76;;
72160;Laerm;60045;51.792;10.938;2024-01-16T02:17:54;49.32;30.05;64.67;;
72160;Laerm;60045;51.792;10.938;2024-01-16T02:20:20;45.76;36.67;57.28;;
72160;Laerm;60045;51.792;10.938;2024-01-16T02:22:46;43.21;30.72;59.50;;
72160;Laerm;60045;51.792;10.938;2024-01-16T02:25:13;36.72;30.61;50.58;;
72160;Laerm;60045;51.792;10.938;2024-01-16T02:27:39;32.62;30.35;43.90;;
72160;Laerm;60045;51.792;10.938;2024-01-16T02:30:05;37.22;32.20;46.39;;
72160;Laerm;60045;51.792;10.938;2024-01-16T02:32:31;32.16;29.73;35.74;;
72160;Laerm;60045;51.792;10.938;2024-01-16T02:38:39;40.97;31.45;51.73;;
72160;Laerm;60045;51.792;10.938;2024-01-16T02:41:05;41.64;36.67;47.30;;
72160;Laerm;60045;51.792;10.938;2024-01-16T02:43:31;63.73;34.56;80.86;;
72160;Laerm;60045;51.792;10.938;2024-01-16T02:45:56;44.62;33.97;55.96;;
72160;Laerm;60045;51.792;10.938;2024-01-16T02:48:23;42.54;32.41;54.46;;
72160;Laerm;60045;51.792;10.938;2024-01-16T02:50:48;52.46;31.82;68.14;;
72160;Laerm;60045;51.792;10.938;2024-01-16T02:53:14;55.48;32.60;72.08;;
72160;Laerm;60045;51.792;10.938;2024-01-16T02:55:40;38.28;32.94;43.78;;
72160;Laerm;60045;51.792;10.938;2024-01-16T02:58:06;44.94;35.99;52.72;;
72160;Laerm;60045;51.792;10.938;2024-01-16T03:00:31;40.72;34.23;54.17;;
72160;Laerm;60045;51.792;10.938;2024-01-16T03:02:57;33.31;30.42;40.87;;
72160;Laerm;60045;51.792;10.938;2024-01-16T03:05:23;51.28;32.71;73.04;;
72160;Laerm;60045;51.792;10.938;2024-01-16T03:07:49;50.83;30.75;67.01;;
72160;Laerm;60045;51.792;10.938;2024-01-16T03:10:14;45.04;31.05;64.70;;
72160;Laerm;60045;51.792;10.938;2024-01-16T03:12:40;34.85;32.21;45.81;;
72160;Laerm;60045;51.792;10.938;2024-01-16T03:15:06;41.24;32.53;56.41;;
72160;Laerm;60045;51.792;10.938;2024-01-16T03:17:32;37.01;31.81;48.04;;
72160;Laerm;60045;51.792;10.938;2024-01-16T03:19:58;36.48;33.39;45.10;;
72160;Laerm;60045;51.792;10.938;2024-01-16T03:22:24;34.87;31.48;42.25;;
72160;Laerm;60045;51.792;10.938;2024-01-16T03:24:50;64.09;31.02;78.74;;
72160;Laerm;60045;51.792;10.938;2024-01-16T03:27:16;57.20;30.88;74.33;;
72160;Laerm;60045;51.792;10.938;2024-01-16T03:29:42;54.88;30.95;71.99;;
72160;Laerm;60045;51.792;10.938;2024-01-16T03:32:07;57.54;31.41;73.49;;
72160;Laerm;60045;51.792;10.938;2024-01-16T03:34:33;53.13;30.50;68.91;;
72160;Laerm;60045;51.792;10.938;2024-01-16T03:36:59;52.03;30.09;68.03;;
72160;Laerm;60045;51.792;10.938;2024-01-16T03:39:25;57.49;31.38;74.42;;
72160;Laerm;60045;51.792;10.938;2024-01-16T03:41:50;65.19;31.17;83.96;;
72160;Laerm;60045;51.792;10.938;2024-01-16T03:44:16;35.97;29.89;48.30;;
72160;Laerm;60045;51.792;10.938;2024-01-16T03:46:42;51.84;30.21;67.73;;
72160;Laerm;60045;51.792;10.938;2024-01-16T03:49:07;31.15;29.63;34.63;;
72160;Laerm;60045;51.792;10.938;2024-01-16T03:51:33;35.16;31.93;42.36;;
72160;Laerm;60045;51.792;10.938;2024-01-16T03:53:59;69.61;34.63;86.94;;
72160;Laerm;60045;51.792;10.938;2024-01-16T03:56:25;56.67;36.46;70.96;;
72160;Laerm;60045;51.792;10.938;2024-01-16T03:58:50;59.80;32.59;76.26;;
72160;Laerm;60045;51.792;10.938;2024-01-16T04:01:16;59.46;34.78;76.52;;
72160;Laerm;60045;51.792;10.938;2024-01-16T04:03:42;51.89;35.62;68.76;;
72160;Laerm;60045;51.792;10.938;2024-01-16T04:06:14;52.61;31.77;68.15;;
72160;Laerm;60045;51.792;10.938;2024-01-16T04:08:40;58.56;31.60;72.81;;
72160;Laerm;60045;51.792;10.938;2024-01-16T04:11:11;60.96;32.78;74.28;;
72160;Laerm;60045;51.792;10.938;2024-01-16T04:13:36;60.32;34.86;75.24;;
72160;Laerm;60045;51.792;10.938;2024-01-16T04:16:02;56.01;32.21;70.09;;
72160;Laerm;60045;51.792;10.938;2024-01-16T04:18:28;65.07;33.78;81.92;;
72160;Laerm;60045;51.792;10.938;2024-01-16T04:20:53;64.51;33.26;81.52;;
72160;Laerm;60045;51.792;10.938;2024-01-16T04:23:19;59.36;34.56;72.18;;
72160;Laerm;60045;51.792;10.938;2024-01-16T04:25:45;57.50;34.03;72.97;;
72160;Laerm;60045;51.792;10.938;2024-01-16T04:28:11;59.08;31.58;75.91;;
72160;Laerm;60045;51.792;10.938;2024-01-16T04:30:36;50.78;31.27;66.54;;
72160;Laerm;60045;51.792;10.938;2024-01-16T04:33:02;57.06;29.94;74.41;;
72160;Laerm;60045;51.792;10.938;2024-01-16T04:35:28;64.71;33.38;81.09;;
72160;Laerm;60045;51.792;10.938;2024-01-16T04:37:54;61.86;33.71;74.92;;
72160;Laerm;60045;51.792;10.938;2024-01-16T04:40:19;59.04;32.25;72.62;;
72160;Laerm;60045;51.792;10.938;2024-01-16T04:42:45;63.79;32.96;81.48;;
72160;Laerm;60045;51.792;10.938;2024-01-16T04:45:11;65.62;34.19;81.44;;
72160;Laerm;60045;51.792;10.938;2024-01-16T04:47:37;38.03;33.23;42.52;;
72160;Laerm;60045;51.792;10.938;2024-01-16T04:50:03;60.22;34.76;74.02;;
72160;Laerm;60045;51.792;10.938;2024-01-16T04:52:28;64.66;39.04;80.34;;
72160;Laerm;60045;51.792;10.938;2024-01-16T04:54:54;57.76;35.02;71.66;;
72160;Laerm;60045;51.792;10.938;2024-01-16T04:57:20;59.36;35.25;74.85;;
72160;Laerm;60045;51.792;10.938;2024-01-16T04:59:46;63.45;35.14;75.22;;
72160;Laerm;60045;51.792;10.938;2024-01-16T05:02:11;58.85;34.48;71.21;;
72160;Laerm;60045;51.792;10.938;2024-01-16T05:04:39;67.59;36.00;82.01;;
72160;Laerm;60045;51.792;10.938;2024-01-16T05:07:05;66.07;36.41;80.32;;
72160;Laerm;60045;51.792;10.938;2024-01-16T05:09:30;69.33;35.72;86.94;;
72160;Laerm;60045;51.792;10.938;2024-01-16T05:11:56;56.27;33.57;71.75;;
72160;Laerm;60045;51.792;10.938;2024-01-16T05:14:22;64.34;35.65;78.19;;
72160;Laerm;60045;51.792;10.938;2024-01-16T05:16:50;54.59;31.56;72.44;;
72160;Laerm;60045;51.792;10.938;2024-01-16T05:19:15;62.43;35.64;74.87;;
72160;Laerm;60045;51.792;10.938;2024-01-16T05:21:41;60.40;37.49;74.75;;
72160;Laerm;60045;51.792;10.938;2024-01-16T05:24:07;65.98;37.02;80.77;;
72160;Laerm;60045;51.792;10.938;2024-01-16T05:26:33;57.30;32.72;70.77;;
72160;Laerm;60045;51.792;10.938;2024-01-16T05:28:59;64.57;33.70;78.83;;
72160;Laerm;60045;51.792;10.938;2024-01-16T05:31:24;56.32;35.00;71.49;;
72160;Laerm;60045;51.792;10.938;2024-01-16T05:33:50;61.49;36.15;74.50;;
72160;Laerm;60045;51.792;10.938;2024-01-16T05:36:16;61.48;41.64;75.44;;
72160;Laerm;60045;51.792;10.938;2024-01-16T05:38:41;62.28;35.60;73.94;;
72160;Laerm;60045;51.792;10.938;2024-01-16T05:41:08;61.36;35.04;75.82;;
72160;Laerm;60045;51.792;10.938;2024-01-16T05:43:34;59.01;33.80;72.22;;
72160;Laerm;60045;51.792;10.938;2024-01-16T05:46:00;58.82;34.35;70.84;;
72160;Laerm;60045;51.792;10.938;2024-01-16T05:48:26;59.34;34.44;70.76;;
72160;Laerm;60045;51.792;10.938;2024-01-16T05:50:52;59.10;33.23;74.41;;
72160;Laerm;60045;51.792;10.938;2024-01-16T05:53:18;63.51;36.95;76.02;;
72160;Laerm;60045;51.792;10.938;2024-01-16T05:55:44;61.46;35.27;76.10;;
72160;Laerm;60045;51.792;10.938;2024-01-16T05:58:09;64.78;34.52;78.62;;
72160;Laerm;60045;51.792;10.938;2024-01-16T06:00:35;59.71;35.61;70.04;;
72160;Laerm;60045;51.792;10.938;2024-01-16T06:03:01;58.26;33.68;68.84;;
72160;Laerm;60045;51.792;10.938;2024-01-16T06:05:28;67.27;34.11;79.02;;
72160;Laerm;60045;51.792;10.938;2024-01-16T06:07:53;64.92;34.69;80.43;;
72160;Laerm;60045;51.792;10.938;2024-01-16T06:10:19;57.67;33.24;70.15;;
72160;Laerm;60045;51.792;10.938;2024-01-16T06:12:45;60.97;34.71;72.36;;
72160;Laerm;60045;51.792;10.938;2024-01-16T06:15:11;59.79;36.72;73.02;;
72160;Laerm;60045;51.792;10.938;2024-01-16T06:17:36;67.79;38.47;78.03;;
72160;Laerm;60045;51.792;10.938;2024-01-16T06:20:02;64.98;33.56;79.59;;
72160;Laerm;60045;51.792;10.938;2024-01-16T06:22:29;66.88;34.13;82.12;;
72160;Laerm;60045;51.792;10.938;2024-01-16T06:24:55;59.45;34.05;71.73;;
72160;Laerm;60045;51.792;10.938;2024-01-16T06:27:21;66.53;36.29;83.91;;
72160;Laerm;60045;51.792;10.938;2024-01-16T06:29:50;59.91;33.67;72.73;;
72160;Laerm;60045;51.792;10.938;2024-01-16T06:32:16;60.01;36.13;75.42;;
72160;Laerm;60045;51.792;10.938;2024-01-16T06:34:42;66.02;39.39;82.07;;
72160;Laerm;60045;51.792;10.938;2024-01-16T06:37:07;67.08;37.57;82.84;;
72160;Laerm;60045;51.792;10.938;2024-01-16T06:39:33;62.54;36.96;74.17;;
72160;Laerm;60045;51.792;10.938;2024-01-16T06:41:59;61.30;34.44;71.85;;
72160;Laerm;60045;51.792;10.938;2024-01-16T06:44:25;61.93;33.62;75.73;;
72160;Laerm;60045;51.792;10.938;2024-01-16T06:46:51;59.68;32.43;72.26;;
72160;Laerm;60045;51.792;10.938;2024-01-16T06:49:17;61.63;31.96;73.70;;
72160;Laerm;60045;51.792;10.938;2024-01-16T06:51:42;59.62;35.96;72.51;;
72160;Laerm;60045;51.792;10.938;2024-01-16T06:54:08;62.17;31.77;78.90;;
72160;Laerm;60045;51.792;10.938;2024-01-16T06:56:34;60.90;33.09;74.58;;
72160;Laerm;60045;51.792;10.938;2024-01-16T06:59:00;66.37;31.47;79.58;;
72160;Laerm;60045;51.792;10.938;2024-01-16T07:01:26;64.49;31.17;79.47;;
72160;Laerm;60045;51.792;10.938;2024-01-16T07:03:51;65.45;34.30;81.69;;
72160;Laerm;60045;51.792;10.938;2024-01-16T07:06:17;65.61;39.03;80.18;;
72160;Laerm;60045;51.792;10.938;2024-01-16T07:08:43;59.93;32.83;74.39;;
72160;Laerm;60045;51.792;10.938;2024-01-16T07:11:09;67.30;33.24;81.47;;
72160;Laerm;60045;51.792;10.938;2024-01-16T07:13:38;59.94;33.27;72.97;;
72160;Laerm;60045;51.792;10.938;2024-01-16T07:16:04;60.28;30.49;73.40;;
72160;Laerm;60045;51.792;10.938;2024-01-16T07:18:29;57.85;29.65;70.71;;
72160;Laerm;60045;51.792;10.938;2024-01-16T07:20:55;60.97;33.33;75.24;;
72160;Laerm;60045;51.792;10.938;2024-01-16T07:23:21;65.43;34.40;78.66;;
72160;Laerm;60045;51.792;10.938;2024-01-16T07:25:47;67.82;35.39;80.09;;
72160;Laerm;60045;51.792;10.938;2024-01-16T07:28:12;60.52;30.77;76.33;;
72160;Laerm;60045;51.792;10.938;2024-01-16T07:30:39;59.23;33.49;74.02;;
72160;Laerm;60045;51.792;10.938;2024-01-16T07:33:05;58.78;32.80;73.69;;
72160;Laerm;60045;51.792;10.938;2024-01-16T07:35:31;59.93;32.78;73.48;;
72160;Laerm;60045;51.792;10.938;2024-01-16T07:37:57;66.32;35.00;79.65;;
72160;Laerm;60045;51.792;10.938;2024-01-16T07:40:22;57.79;32.23;72.80;;
72160;Laerm;60045;51.792;10.938;2024-01-16T07:42:48;68.18;36.61;81.85;;
72160;Laerm;60045;51.792;10.938;2024-01-16T07:45:14;56.37;32.47;70.63;;
72160;Laerm;60045;51.792;10.938;2024-01-16T07:47:40;55.00;30.96;67.06;;
72160;Laerm;60045;51.792;10.938;2024-01-16T07:50:06;60.59;31.91;74.46;;
72160;Laerm;60045;51.792;10.938;2024-01-16T07:52:32;63.83;34.57;77.61;;
72160;Laerm;60045;51.792;10.938;2024-01-16T07:54:58;65.10;35.61;79.67;;
72160;Laerm;60045;51.792;10.938;2024-01-16T07:57:24;63.19;35.65;75.10;;
72160;Laerm;60045;51.792;10.938;2024-01-16T07:59:49;58.59;33.47;69.88;;
72160;Laerm;60045;51.792;10.938;2024-01-16T08:02:15;67.34;35.29;85.41;;
72160;Laerm;60045;51.792;10.938;2024-01-16T08:04:42;63.87;31.87;78.82;;
72160;Laerm;60045;51.792;10.938;2024-01-16T08:07:07;58.89;31.70;74.33;;
72160;Laerm;60045;51.792;10.938;2024-01-16T08:09:33;60.57;32.88;71.03;;
72160;Laerm;60045;51.792;10.938;2024-01-16T08:12:00;59.48;32.97;71.74;;
72160;Laerm;60045;51.792;10.938;2024-01-16T08:14:27;62.03;35.48;75.10;;
72160;Laerm;60045;51.792;10.938;2024-01-16T08:16:54;69.70;34.55;89.62;;
72160;Laerm;60045;51.792;10.938;2024-01-16T08:19:19;60.93;30.43;77.49;;
72160;Laerm;60045;51.792;10.938;2024-01-16T08:21:45;61.05;30.14;75.81;;
72160;Laerm;60045;51.792;10.938;2024-01-16T08:24:11;73.57;35.82;90.18;;
72160;Laerm;60045;51.792;10.938;2024-01-16T08:26:37;60.84;32.77;72.88;;
72160;Laerm;60045;51.792;10.938;2024-01-16T08:29:03;59.68;36.36;74.28;;
72160;Laerm;60045;51.792;10.938;2024-01-16T08:31:30;68.73;37.97;81.18;;
72160;Laerm;60045;51.792;10.938;2024-01-16T08:33:56;61.16;33.78;71.74;;
72160;Laerm;60045;51.792;10.938;2024-01-16T08:36:22;56.20;28.38;69.69;;
72160;Laerm;60045;51.792;10.938;2024-01-16T08:38:48;59.21;29.85;72.28;;
72160;Laerm;60045;51.792;10.938;2024-01-16T08:41:13;59.85;31.34;70.33;;
72160;Laerm;60045;51.792;10.938;2024-01-16T08:43:39;58.07;30.71;71.59;;
72160;Laerm;60045;51.792;10.938;2024-01-16T08:46:05;63.83;33.53;78.21;;
72160;Laerm;60045;51.792;10.938;2024-01-16T08:48:31;65.96;34.58;79.54;;
72160;Laerm;60045;51.792;10.938;2024-01-16T08:50:57;69.04;37.50;86.53;;
72160;Laerm;60045;51.792;10.938;2024-01-16T08:53:24;69.67;34.95;84.87;;
72160;Laerm;60045;51.792;10.938;2024-01-16T08:55:49;61.23;35.10;74.51;;
72160;Laerm;60045;51.792;10.938;2024-01-16T08:58:15;62.51;34.35;76.69;;
72160;Laerm;60045;51.792;10.938;2024-01-16T09:00:41;64.71;33.78;78.48;;
72160;Laerm;60045;51.792;10.938;2024-01-16T09:03:06;61.07;31.32;75.24;;
72160;Laerm;60045;51.792;10.938;2024-01-16T09:05:32;65.40;32.55;80.45;;
72160;Laerm;60045;51.792;10.938;2024-01-16T09:08:01;63.32;36.76;78.28;;
72160;Laerm;60045;51.792;10.938;2024-01-16T09:10:27;66.49;36.57;81.20;;
72160;Laerm;60045;51.792;10.938;2024-01-16T09:12:54;58.96;31.18;74.73;;
72160;Laerm;60045;51.792;10.938;2024-01-16T09:15:20;62.99;36.29;76.54;;
72160;Laerm;60045;51.792;10.938;2024-01-16T09:17:46;65.20;36.69;79.69;;
72160;Laerm;60045;51.792;10.938;2024-01-16T09:20:11;57.62;36.97;68.64;;
72160;Laerm;60045;51.792;10.938;2024-01-16T09:22:37;61.05;35.35;74.51;;
72160;Laerm;60045;51.792;10.938;2024-01-16T09:25:03;64.22;32.76;79.58;;
72160;Laerm;60045;51.792;10.938;2024-01-16T09:27:30;69.35;34.28;83.96;;
72160;Laerm;60045;51.792;10.938;2024-01-16T09:29:56;52.62;32.63;67.76;;
72160;Laerm;60045;51.792;10.938;2024-01-16T09:32:22;58.92;31.52;71.61;;
72160;Laerm;60045;51.792;10.938;2024-01-16T09:34:48;64.20;34.62;79.78;;
72160;Laerm;60045;51.792;10.938;2024-01-16T09:37:14;66.53;32.92;81.77;;
72160;Laerm;60045;51.792;10.938;2024-01-16T09:39:42;66.26;39.63;81.86;;
72160;Laerm;60045;51.792;10.938;2024-01-16T09:42:08;63.36;35.34;76.20;;
72160;Laerm;60045;51.792;10.938;2024-01-16T09:44:34;59.46;33.26;71.44;;
72160;Laerm;60045;51.792;10.938;2024-01-16T09:47:00;65.38;33.35;81.42;;
72160;Laerm;60045;51.792;10.938;2024-01-16T09:49:26;60.13;33.13;74.14;;
72160;Laerm;60045;51.792;10.938;2024-01-16T09:51:52;41.16;30.80;55.32;;
72160;Laerm;60045;51.792;10.938;2024-01-16T09:54:18;65.41;38.47;80.30;;
72160;Laerm;60045;51.792;10.938;2024-01-16T09:56:44;57.97;31.46;73.07;;
72160;Laerm;60045;51.792;10.938;2024-01-16T09:59:12;66.32;31.10;83.21;;
72160;Laerm;60045;51.792;10.938;2024-01-16T10:01:40;67.10;35.30;82.30;;
72160;Laerm;60045;51.792;10.938;2024-01-16T10:04:06;52.76;31.65;68.94;;
72160;Laerm;60045;51.792;10.938;2024-01-16T10:06:32;60.84;30.35;74.66;;
72160;Laerm;60045;51.792;10.938;2024-01-16T10:08:59;59.05;32.52;74.66;;
72160;Laerm;60045;51.792;10.938;2024-01-16T10:11:25;59.73;32.10;71.75;;
72160;Laerm;60045;51.792;10.938;2024-01-16T10:13:50;61.21;32.12;76.46;;
72160;Laerm;60045;51.792;10.938;2024-01-16T10:16:16;65.23;35.59;80.73;;
72160;Laerm;60045;51.792;10.938;2024-01-16T10:18:42;59.54;32.74;69.39;;
72160;Laerm;60045;51.792;10.938;2024-01-16T10:21:19;58.39;31.24;70.80;;
72160;Laerm;60045;51.792;10.938;2024-01-16T10:23:46;64.46;31.21;80.69;;
72160;Laerm;60045;51.792;10.938;2024-01-16T10:26:12;61.66;33.42;78.11;;
72160;Laerm;60045;51.792;10.938;2024-01-16T10:28:39;59.13;32.03;73.04;;
72160;Laerm;60045;51.792;10.938;2024-01-16T10:31:08;64.36;32.27;79.40;;
72160;Laerm;60045;51.792;10.938;2024-01-16T10:33:34;57.11;31.87;72.04;;
72160;Laerm;60045;51.792;10.938;2024-01-16T10:38:37;64.02;35.71;76.22;;
72160;Laerm;60045;51.792;10.938;2024-01-16T10:41:15;67.68;35.60;82.53;;
72160;Laerm;60045;51.792;10.938;2024-01-16T10:43:50;61.19;33.83;72.83;;
72160;Laerm;60045;51.792;10.938;2024-01-16T10:46:28;63.12;38.56;73.50;;
72160;Laerm;60045;51.792;10.938;2024-01-16T10:49:01;61.83;35.11;74.00;;
72160;Laerm;60045;51.792;10.938;2024-01-16T10:51:27;68.51;32.10;87.87;;
72160;Laerm;60045;51.792;10.938;2024-01-16T10:54:00;56.39;32.96;69.30;;
72160;Laerm;60045;51.792;10.938;2024-01-16T10:56:29;62.80;32.48;76.03;;
72160;Laerm;60045;51.792;10.938;2024-01-16T10:59:04;59.05;32.38;72.91;;
72160;Laerm;60045;51.792;10.938;2024-01-16T11:01:32;56.60;33.05;72.69;;
72160;Laerm;60045;51.792;10.938;2024-01-16T11:03:58;65.36;32.18;79.76;;
72160;Laerm;60045;51.792;10.938;2024-01-16T11:06:26;62.21;38.10;73.76;;
72160;Laerm;60045;51.792;10.938;2024-01-16T11:08:52;66.70;33.89;80.72;;
72160;Laerm;60045;51.792;10.938;2024-01-16T11:11:17;63.82;33.55;78.70;;
72160;Laerm;60045;51.792;10.938;2024-01-16T11:13:45;63.89;32.51;80.14;;
72160;Laerm;60045;51.792;10.938;2024-01-16T11:16:11;61.67;33.15;73.11;;
72160;Laerm;60045;51.792;10.938;2024-01-16T11:18:37;58.31;30.24;74.44;;
72160;Laerm;60045;51.792;10.938;2024-01-16T11:21:08;64.13;30.99;77.00;;
72160;Laerm;60045;51.792;10.938;2024-01-16T11:23:35;54.40;31.30;72.64;;
72160;Laerm;60045;51.792;10.938;2024-01-16T11:28:46;68.20;36.65;80.10;;
72160;Laerm;60045;51.792;10.938;2024-01-16T11:31:31;63.93;32.72;79.04;;
72160;Laerm;60045;51.792;10.938;2024-01-16T11:33:57;60.12;32.80;74.49;;
72160;Laerm;60045;51.792;10.938;2024-01-16T11:36:43;65.64;34.10;81.45;;
72160;Laerm;60045;51.792;10.938;2024-01-16T11:39:16;62.53;48.86;77.49;;
72160;Laerm;60045;51.792;10.938;2024-01-16T11:41:47;55.37;48.06;70.47;;
72160;Laerm;60045;51.792;10.938;2024-01-16T11:44:35;58.39;37.02;71.66;;
72160;Laerm;60045;51.792;10.938;2024-01-16T11:47:02;57.22;30.74;73.04;;
72160;Laerm;60045;51.792;10.938;2024-01-16T11:49:28;61.43;35.72;74.12;;
72160;Laerm;60045;51.792;10.938;2024-01-16T11:51:56;59.65;34.79;72.09;;
72160;Laerm;60045;51.792;10.938;2024-01-16T11:54:22;65.03;32.85;79.94;;
72160;Laerm;60045;51.792;10.938;2024-01-16T11:56:54;62.65;32.12;73.78;;
72160;Laerm;60045;51.792;10.938;2024-01-16T11:59:36;61.96;39.19;73.91;;
72160;Laerm;60045;51.792;10.938;2024-01-16T12:02:05;65.69;33.26;83.47;;
72160;Laerm;60045;51.792;10.938;2024-01-16T12:04:34;59.74;32.67;71.86;;
72160;Laerm;60045;51.792;10.938;2024-01-16T12:07:00;62.16;37.25;74.70;;
72160;Laerm;60045;51.792;10.938;2024-01-16T12:09:27;60.52;33.73;76.31;;
72160;Laerm;60045;51.792;10.938;2024-01-16T12:11:59;62.11;36.55;76.10;;
72160;Laerm;60045;51.792;10.938;2024-01-16T12:14:26;60.40;30.36;74.19;;
72160;Laerm;60045;51.792;10.938;2024-01-16T12:16:52;50.46;30.60;66.97;;
72160;Laerm;60045;51.792;10.938;2024-01-16T12:19:18;64.64;30.89;78.82;;
72160;Laerm;60045;51.792;10.938;2024-01-16T12:21:44;63.68;36.98;73.76;;
72160;Laerm;60045;51.792;10.938;2024-01-16T12:24:11;58.65;31.57;69.65;;
72160;Laerm;60045;51.792;10.938;2024-01-16T12:26:37;68.58;32.84;86.56;;
72160;Laerm;60045;51.792;10.938;2024-01-16T12:29:03;59.66;30.26;73.06;;
72160;Laerm;60045;51.792;10.938;2024-01-16T12:31:29;64.40;34.68;78.95;;
72160;Laerm;60045;51.792;10.938;2024-01-16T12:34:04;62.48;30.74;77.90;;
72160;Laerm;60045;51.792;10.938;2024-01-16T12:36:29;53.89;29.96;68.19;;
72160;Laerm;60045;51.792;10.938;2024-01-16T12:38:55;66.09;36.16;82.25;;
72160;Laerm;60045;51.792;10.938;2024-01-16T12:41:21;57.87;29.86;70.86;;
72160;Laerm;60045;51.792;10.938;2024-01-16T12:43:51;62.29;34.08;75.96;;
72160;Laerm;60045;51.792;10.938;2024-01-16T12:46:16;61.14;33.85;77.42;;
72160;Laerm;60045;51.792;10.938;2024-01-16T12:48:44;58.89;33.98;70.78;;
72160;Laerm;60045;51.792;10.938;2024-01-16T12:51:10;61.37;33.04;79.35;;
72160;Laerm;60045;51.792;10.938;2024-01-16T12:53:37;61.43;32.64;73.41;;
72160;Laerm;60045;51.792;10.938;2024-01-16T12:56:04;65.06;37.22;78.18;;
72160;Laerm;60045;51.792;10.938;2024-01-16T12:58:33;56.34;31.53;72.09;;
72160;Laerm;60045;51.792;10.938;2024-01-16T13:01:20;60.52;31.34;73.24;;
72160;Laerm;60045;51.792;10.938;2024-01-16T13:03:45;61.09;30.38;75.15;;
72160;Laerm;60045;51.792;10.938;2024-01-16T13:06:10;56.37;30.26;72.18;;
72160;Laerm;60045;51.792;10.938;2024-01-16T13:08:42;60.38;32.19;72.40;;
72160;Laerm;60045;51.792;10.938;2024-01-16T13:11:08;60.92;31.32;72.65;;
72160;Laerm;60045;51.792;10.938;2024-01-16T13:13:34;59.26;30.31;72.90;;
72160;Laerm;60045;51.792;10.938;2024-01-16T13:16:01;63.28;37.26;75.43;;
72160;Laerm;60045;51.792;10.938;2024-01-16T13:18:28;60.87;36.49;73.12;;
72160;Laerm;60045;51.792;10.938;2024-01-16T13:20:54;63.19;36.24;74.12;;
72160;Laerm;60045;51.792;10.938;2024-01-16T13:23:20;64.68;35.92;79.79;;
72160;Laerm;60045;51.792;10.938;2024-01-16T13:25:47;59.43;33.52;72.44;;
72160;Laerm;60045;51.792;10.938;2024-01-16T13:28:13;61.90;34.19;72.61;;
72160;Laerm;60045;51.792;10.938;2024-01-16T13:30:39;64.29;31.38;80.17;;
72160;Laerm;60045;51.792;10.938;2024-01-16T13:33:06;61.02;32.52;77.49;;
72160;Laerm;60045;51.792;10.938;2024-01-16T13:35:33;67.68;35.38;81.27;;
72160;Laerm;60045;51.792;10.938;2024-01-16T13:38:00;69.08;39.58;84.64;;
72160;Laerm;60045;51.792;10.938;2024-01-16T13:40:26;60.77;38.73;71.64;;